Time;durP1;ratioP1;P1;durP2;ratioP2;P2;SDS_P1;SDS_P2;PMS_P1;PMS_P2;Temp;Humidity;BMP_temperature;BMP_pressure;BME280_temperature;BME280_humidity;BME280_pressure;Samples;Min_cycle;Max_cycle;Signal;HPM_P1;HPM_P2
2024/03/07 00:00:53;;;;;;;;;;;;;;;-144.99;100.00;52444.03;5027568;28;20059;-67
2024/03/07 00:03:24;;;;;;;;;;;;;;;-144.99;100.00;52448.09;4711721;22;9999850;-70
2024/03/07 00:05:50;;;;;;;;;;;;;;;-144.99;100.00;52452.16;5048855;28;19932;-68
2024/03/07 00:08:17;;;;;;;;;;;;;;;-144.99;100.00;52466.44;5048444;28;20321;-66
2024/03/07 00:10:44;;;;;;;;;;;;;;;-144.99;100.00;52476.63;5044335;28;19935;-65
2024/03/07 00:13:10;;;;;;;;;;;;;;;-144.99;100.00;52448.09;5033008;28;20016;-67
2024/03/07 00:15:37;;;;;;;;;;;;;;;-144.99;100.00;52480.72;5031755;28;19929;-65
2024/03/07 00:18:05;;;;;;;;;;;;;;;-144.99;100.00;52448.09;5037135;28;20349;-68
2024/03/07 00:20:33;;;;;;;;;;;;;;;-144.99;100.00;52444.03;5030902;28;19929;-70
2024/03/07 00:22:59;;;;;;;;;;;;;;;-144.99;100.00;52472.56;5033080;28;20378;-67
2024/03/07 00:25:26;;;;;;;;;;;;;;;-144.99;100.00;52480.72;5053087;28;20465;-65
2024/03/07 00:27:53;;;;;;;;;;;;;;;-144.99;100.00;52437.91;5031997;28;19925;-67
2024/03/07 00:30:20;;;;;;;;;;;;;;;-144.99;100.00;52427.72;5033027;28;20433;-68
2024/03/07 00:32:47;;;;;;;;;;;;;;;-144.99;100.00;52478.66;5038767;28;19929;-66
2024/03/07 00:35:13;;;;;;;;;;;;;;;-144.99;100.00;52448.09;5044381;28;19925;-66
2024/03/07 00:37:41;;;;;;;;;;;;;;;-144.99;100.00;52464.41;5039753;28;20043;-68
2024/03/07 00:40:08;;;;;;;;;;;;;;;-144.99;100.00;52468.47;5038496;28;19961;-67
2024/03/07 00:42:35;;;;;;;;;;;;;;;-144.99;100.00;52435.88;5029233;28;20303;-66
2024/03/07 00:45:01;;;;;;;;;;;;;;;-144.99;100.00;52448.09;5035164;28;19973;-67
2024/03/07 00:47:28;;;;;;;;;;;;;;;-144.99;100.00;52429.75;5038693;28;19925;-68
2024/03/07 00:49:54;;;;;;;;;;;;;;;-144.99;100.00;52403.25;5034024;28;19925;-67
2024/03/07 00:52:21;;;;;;;;;;;;;;;-144.99;100.00;52427.72;5035546;28;20393;-79
2024/03/07 00:54:49;;;;;;;;;;;;;;;-144.99;100.00;52444.03;5041177;28;20272;-78
2024/03/07 00:57:16;;;;;;;;;;;;;;;-144.99;100.00;52488.84;5038597;28;20588;-68
2024/03/07 00:59:42;;;;;;;;;;;;;;;-144.99;100.00;52395.09;5038098;28;20180;-69
2024/03/07 01:02:09;;;;;;;;;;;;;;;-144.99;100.00;52435.88;5031819;28;19972;-69
2024/03/07 01:04:35;;;;;;;;;;;;;;;-144.99;100.00;52439.94;5038214;28;20159;-67
2024/03/07 01:07:03;;;;;;;;;;;;;;;-144.99;100.00;52431.78;5033196;28;19928;-68
2024/03/07 01:09:29;;;;;;;;;;;;;;;-144.99;100.00;52458.28;5027801;28;19925;-67
2024/03/07 01:11:59;;;;;;;;;;;;;;;-144.99;100.00;52456.25;5030959;28;20011;-67
2024/03/07 01:14:26;;;;;;;;;;;;;;;-144.99;100.00;52444.03;5034849;28;20450;-66
2024/03/07 01:16:52;;;;;;;;;;;;;;;-144.99;100.00;52480.72;5029516;28;19924;-68
2024/03/07 01:19:19;;;;;;;;;;;;;;;-144.99;100.00;52452.16;5030926;28;19929;-68
2024/03/07 01:21:45;;;;;;;;;;;;;;;-144.99;100.00;52450.13;5036858;28;19975;-64
2024/03/07 01:24:12;;;;;;;;;;;;;;;-144.99;100.00;52452.16;5037746;28;19986;-64
2024/03/07 01:26:39;;;;;;;;;;;;;;;-144.99;100.00;52454.22;5039655;28;19924;-64
2024/03/07 01:29:06;;;;;;;;;;;;;;;-144.99;100.00;52456.25;5039288;28;19928;-64
2024/03/07 01:31:33;;;;;;;;;;;;;;;-144.99;100.00;52431.78;5029022;28;19948;-62
2024/03/07 01:34:00;;;;;;;;;;;;;;;-144.99;100.00;52448.09;5028822;28;20129;-64
2024/03/07 01:36:26;;;;;;;;;;;;;;;-144.99;100.00;52435.88;5031933;28;19925;-64
2024/03/07 01:38:53;;;;;;;;;;;;;;;-144.99;100.00;52435.88;5039616;28;19936;-64
2024/03/07 01:41:19;;;;;;;;;;;;;;;-144.99;100.00;52444.03;5031303;28;19925;-65
2024/03/07 01:43:46;;;;;;;;;;;;;;;-144.99;100.00;52409.38;5039503;28;19931;-64
2024/03/07 01:46:14;;;;;;;;;;;;;;;-144.99;100.00;52415.47;5032115;28;20059;-65
2024/03/07 01:48:41;;;;;;;;;;;;;;;-144.99;100.00;52474.59;5039242;28;20371;-66
2024/03/07 01:51:08;;;;;;;;;;;;;;;-144.99;100.00;52419.56;5037154;28;19929;-64
2024/03/07 01:53:35;;;;;;;;;;;;;;;-144.99;100.00;52439.94;5028808;28;19929;-64
2024/03/07 01:56:03;;;;;;;;;;;;;;;-144.99;100.00;52448.09;5038324;28;20480;-62
2024/03/07 01:58:30;;;;;;;;;;;;;;;-144.99;100.00;52423.63;5033149;28;19925;-63
2024/03/07 02:00:57;;;;;;;;;;;;;;;-144.99;100.00;52439.94;5028257;28;19925;-63
2024/03/07 02:03:25;;;;;;;;;;;;;;;-144.99;100.00;52472.56;5028950;28;20055;-68
2024/03/07 02:05:52;;;;;;;;;;;;;;;-144.99;100.00;52444.03;5034258;28;19964;-67
2024/03/07 02:08:19;;;;;;;;;;;;;;;-144.99;100.00;52427.72;5031133;28;19948;-66
2024/03/07 02:10:46;;;;;;;;;;;;;;;-144.99;100.00;52423.63;5029266;28;19925;-66
2024/03/07 02:13:12;;;;;;;;;;;;;;;-144.99;100.00;52460.31;5036980;28;19929;-65
2024/03/07 02:15:39;;;;;;;;;;;;;;;-144.99;100.00;52433.81;5036181;28;19975;-65
2024/03/07 02:18:05;;;;;;;;;;;;;;;-144.99;100.00;52415.47;5032202;28;19972;-65
2024/03/07 02:20:33;;;;;;;;;;;;;;;-144.99;100.00;52431.78;5028802;28;19955;-62
2024/03/07 02:23:02;;;;;;;;;;;;;;;-144.99;100.00;52444.03;5030177;28;19925;-61
2024/03/07 02:25:28;;;;;;;;;;;;;;;-144.99;100.00;52415.47;5023025;28;19925;-69
2024/03/07 02:27:55;;;;;;;;;;;;;;;-144.99;100.00;52464.41;5031094;28;20433;-74
2024/03/07 02:30:21;;;;;;;;;;;;;;;-144.99;100.00;52464.41;5031876;28;19929;-74
2024/03/07 02:32:51;;;;;;;;;;;;;;;-144.99;100.00;52460.31;5040626;28;19952;-75
2024/03/07 02:35:19;;;;;;;;;;;;;;;-144.99;100.00;52407.31;5032943;28;19933;-76
2024/03/07 02:37:46;;;;;;;;;;;;;;;-144.99;100.00;52446.06;5037700;28;20569;-73
2024/03/07 02:40:14;;;;;;;;;;;;;;;-144.99;100.00;52437.91;5031119;28;19929;-73
2024/03/07 02:42:40;;;;;;;;;;;;;;;-144.99;100.00;52452.16;5030502;28;19995;-73
2024/03/07 02:45:07;;;;;;;;;;;;;;;-144.99;100.00;52474.59;5034449;28;19929;-73
2024/03/07 02:47:34;;;;;;;;;;;;;;;-144.99;100.00;52391.03;5036641;28;19940;-71
2024/03/07 02:50:00;;;;;;;;;;;;;;;-144.99;100.00;52419.56;5041000;28;19967;-72
2024/03/07 02:52:27;;;;;;;;;;;;;;;-144.99;100.00;52435.88;5028701;28;19925;-71
2024/03/07 02:54:53;;;;;;;;;;;;;;;-144.99;100.00;52444.03;5027598;28;19964;-70
2024/03/07 02:57:21;;;;;;;;;;;;;;;-144.99;100.00;52399.19;5032744;28;19956;-70
2024/03/07 02:59:48;;;;;;;;;;;;;;;-144.99;100.00;52431.78;5030012;28;19925;-63
2024/03/07 03:02:14;;;;;;;;;;;;;;;-144.99;100.00;52456.25;5027550;28;19933;-64
2024/03/07 03:04:41;;;;;;;;;;;;;;;-144.99;100.00;52468.47;5034087;28;19925;-63
2024/03/07 03:07:08;;;;;;;;;;;;;;;-144.99;100.00;52423.63;5033590;28;20020;-63
2024/03/07 03:09:34;;;;;;;;;;;;;;;-144.99;100.00;52456.25;5037114;28;19936;-63
2024/03/07 03:12:01;;;;;;;;;;;;;;;-144.99;100.00;52456.25;5031619;28;20399;-67
2024/03/07 03:14:29;;;;;;;;;;;;;;;-144.99;100.00;52439.94;5039637;28;20358;-65
2024/03/07 03:16:56;;;;;;;;;;;;;;;-144.99;100.00;52464.41;5043738;28;20059;-66
2024/03/07 03:19:22;;;;;;;;;;;;;;;-144.99;100.00;52431.78;5041093;28;19932;-62
2024/03/07 03:21:49;;;;;;;;;;;;;;;-144.99;100.00;52435.88;5031455;28;20343;-64
2024/03/07 03:24:16;;;;;;;;;;;;;;;-144.99;100.00;52446.06;5043142;28;20383;-64
2024/03/07 03:26:43;;;;;;;;;;;;;;;-144.99;100.00;52452.16;5031357;28;19925;-63
2024/03/07 03:29:11;;;;;;;;;;;;;;;-144.99;100.00;52444.03;5032102;28;20302;-64
2024/03/07 03:31:39;;;;;;;;;;;;;;;-144.99;100.00;52448.09;5041058;28;19991;-64
2024/03/07 03:34:06;;;;;;;;;;;;;;;-144.99;100.00;52439.94;5035993;28;19932;-64
2024/03/07 03:36:32;;;;;;;;;;;;;;;-144.99;99.93;52446.06;5038290;28;19933;-63
2024/03/07 03:38:59;;;;;;;;;;;;;;;-144.99;99.65;52407.31;5042474;28;20024;-64
2024/03/07 03:41:25;;;;;;;;;;;;;;;-144.99;99.46;52429.75;5035458;28;20019;-66
2024/03/07 03:43:53;;;;;;;;;;;;;;;-144.99;99.27;52484.78;5040508;28;19971;-65
2024/03/07 03:46:19;;;;;;;;;;;;;;;-144.99;99.10;52407.31;5043356;28;19925;-66
2024/03/07 03:48:47;;;;;;;;;;;;;;;-144.99;98.88;52466.44;5036866;28;20275;-66
2024/03/07 03:51:15;;;;;;;;;;;;;;;-144.99;98.67;52429.75;5032366;28;20301;-66
2024/03/07 03:53:41;;;;;;;;;;;;;;;-144.99;98.40;52456.25;5034346;28;19990;-64
2024/03/07 03:56:11;;;;;;;;;;;;;;;-144.99;98.42;52444.03;5031435;28;20044;-64
2024/03/07 03:58:38;;;;;;;;;;;;;;;-144.99;98.26;52431.78;5034999;28;19929;-64
2024/03/07 04:01:07;;;;;;;;;;;;;;;-144.99;98.11;52441.97;5031804;28;19933;-64
2024/03/07 04:03:33;;;;;;;;;;;;;;;-144.99;97.90;52454.22;5040760;28;20413;-65
2024/03/07 04:06:01;;;;;;;;;;;;;;;-144.99;97.66;52435.88;5030220;28;20015;-65
2024/03/07 04:08:28;;;;;;;;;;;;;;;-144.99;97.40;52427.72;5036887;28;19974;-66
2024/03/07 04:10:54;;;;;;;;;;;;;;;-144.99;96.99;52435.88;5034101;28;19968;-66
2024/03/07 04:13:22;;;;;;;;;;;;;;;-144.99;96.46;52464.41;5036065;28;20003;-67
2024/03/07 04:15:48;;;;;;;;;;;;;;;-144.99;96.02;52482.75;5030687;28;19932;-66
2024/03/07 04:18:15;;;;;;;;;;;;;;;-144.99;96.08;52407.31;5032124;28;19964;-66
2024/03/07 04:20:44;;;;;;;;;;;;;;;-144.99;95.94;52462.34;5036704;28;19925;-65
2024/03/07 04:23:12;;;;;;;;;;;;;;;-144.99;95.67;52456.25;5031036;28;20008;-66
2024/03/07 04:25:38;;;;;;;;;;;;;;;-144.99;95.58;52448.09;5041920;28;20031;-66
2024/03/07 04:28:05;;;;;;;;;;;;;;;-144.99;95.83;52484.78;5040110;28;20012;-67
2024/03/07 04:30:31;;;;;;;;;;;;;;;-144.99;95.83;52450.13;5035537;28;19929;-66
2024/03/07 04:32:58;;;;;;;;;;;;;;;-144.99;95.88;52435.88;5028846;28;19983;-61
2024/03/07 04:35:25;;;;;;;;;;;;;;;-144.99;95.67;52480.72;5032388;28;19960;-62
2024/03/07 04:37:52;;;;;;;;;;;;;;;-144.99;95.72;52435.88;5037622;28;19925;-62
2024/03/07 04:40:21;;;;;;;;;;;;;;;-144.99;95.55;52474.59;5029922;28;20016;-62
2024/03/07 04:42:49;;;;;;;;;;;;;;;-144.99;95.67;52456.25;5029908;28;19925;-62
2024/03/07 04:45:15;;;;;;;;;;;;;;;-144.99;95.67;52456.25;5038189;28;19994;-62
2024/03/07 04:47:42;;;;;;;;;;;;;;;-144.99;95.51;52458.28;5030168;28;20304;-62
2024/03/07 04:50:10;;;;;;;;;;;;;;;-144.99;95.46;52427.72;5030639;28;20367;-62
2024/03/07 04:52:37;;;;;;;;;;;;;;;-144.99;95.20;52468.47;5030005;28;19960;-62
2024/03/07 04:55:03;;;;;;;;;;;;;;;-144.99;94.87;52423.63;5029812;28;19976;-62
2024/03/07 04:57:31;;;;;;;;;;;;;;;-144.99;94.95;52425.66;5035620;28;19959;-62
2024/03/07 04:59:58;;;;;;;;;;;;;;;-144.99;95.11;52464.41;5031488;28;19979;-62
2024/03/07 05:02:25;;;;;;;;;;;;;;;-144.99;95.20;52446.06;5033805;28;19928;-63
2024/03/07 05:04:51;;;;;;;;;;;;;;;-144.99;95.31;52439.94;5036978;28;20027;-63
2024/03/07 05:07:18;;;;;;;;;;;;;;;-144.99;95.35;52468.47;5039235;28;20465;-63
2024/03/07 05:09:45;;;;;;;;;;;;;;;-144.99;95.27;52497.00;5029175;28;20375;-63
2024/03/07 05:12:13;;;;;;;;;;;;;;;-144.99;95.48;52517.41;5038335;28;20428;-62
2024/03/07 05:14:41;;;;;;;;;;;;;;;-144.99;95.26;52476.63;5035822;28;19960;-63
2024/03/07 05:17:08;;;;;;;;;;;;;;;-144.99;95.15;52497.00;5034151;28;20025;-63
2024/03/07 05:19:35;;;;;;;;;;;;;;;-144.99;95.19;52501.09;5038580;28;20370;-63
2024/03/07 05:22:02;;;;;;;;;;;;;;;-144.99;95.27;52488.84;5030737;28;19991;-63
2024/03/07 05:24:29;;;;;;;;;;;;;;;-144.99;94.82;52435.88;5036905;28;19960;-63
2024/03/07 05:26:56;;;;;;;;;;;;;;;-144.99;95.25;52423.63;5036361;28;19925;-64
2024/03/07 05:29:23;;;;;;;;;;;;;;;-144.99;95.26;52476.63;5038695;28;19933;-63
2024/03/07 05:31:50;;;;;;;;;;;;;;;-144.99;95.17;52476.63;5038856;28;20183;-64
2024/03/07 05:34:18;;;;;;;;;;;;;;;-144.99;95.06;52399.19;5035744;28;19925;-66
2024/03/07 05:36:46;;;;;;;;;;;;;;;-144.99;95.02;52454.22;5034046;28;20299;-80
2024/03/07 05:39:12;;;;;;;;;;;;;;;-144.99;94.92;52452.16;5035748;28;19929;-79
2024/03/07 05:41:40;;;;;;;;;;;;;;;-144.99;94.77;52444.03;5041567;28;20283;-70
2024/03/07 05:44:08;;;;;;;;;;;;;;;-144.99;95.00;52439.94;5036411;28;19968;-69
2024/03/07 05:46:35;;;;;;;;;;;;;;;-144.99;94.99;52484.78;5033518;28;19974;-69
2024/03/07 05:49:03;;;;;;;;;;;;;;;-144.99;95.11;52456.25;5032676;28;19935;-69
2024/03/07 05:51:30;;;;;;;;;;;;;;;-144.99;95.24;52480.72;5029166;28;20413;-69
2024/03/07 05:53:56;;;;;;;;;;;;;;;-144.99;95.06;52452.16;5028952;28;19964;-69
2024/03/07 05:56:23;;;;;;;;;;;;;;;-144.99;94.97;52460.31;5041347;28;19979;-68
2024/03/07 05:58:51;;;;;;;;;;;;;;;-144.99;95.07;52468.47;5039677;28;19983;-68
2024/03/07 06:01:18;;;;;;;;;;;;;;;-144.99;94.99;52439.94;5027946;28;20538;-69
2024/03/07 06:03:44;;;;;;;;;;;;;;;-144.99;94.95;52446.06;5036848;28;19933;-69
2024/03/07 06:06:12;;;;;;;;;;;;;;;-144.99;95.04;52427.72;5031594;28;19929;-69
2024/03/07 06:08:41;;;;;;;;;;;;;;;-144.99;94.84;52435.88;5050385;22;19963;-67
2024/03/07 06:11:08;;;;;;;;;;;;;;;-144.99;94.61;52458.28;5060026;28;19933;-66
2024/03/07 06:13:35;;;;;;;;;;;;;;;-144.99;94.08;52452.16;5058286;28;20435;-65
2024/03/07 06:16:05;;;;;;;;;;;;;;;-144.99;94.17;52488.84;5049028;28;20004;-65
2024/03/07 06:18:32;;;;;;;;;;;;;;;-144.99;94.12;52460.31;5053744;28;19925;-77
2024/03/07 06:20:58;;;;;;;;;;;;;;;-144.99;93.91;52497.00;5066324;28;20048;-73
2024/03/07 06:23:28;;;;;;;;;;;;;;;-144.99;93.75;52452.16;5069692;28;19938;-72
2024/03/07 06:25:55;;;;;;;;;;;;;;;-144.99;93.36;52480.72;5070852;28;19931;-65
2024/03/07 06:28:22;;;;;;;;;;;;;;;-144.99;94.45;52486.81;5058843;28;19948;-69
2024/03/07 06:30:49;;;;;;;;;;;;;;;-144.99;94.32;52435.88;5052590;28;19933;-69
2024/03/07 06:33:16;;;;;;;;;;;;;;;-144.99;94.19;52444.03;5057945;28;19936;-68
2024/03/07 06:35:43;;;;;;;;;;;;;;;-144.99;94.33;52484.78;5059008;28;20019;-68
2024/03/07 06:38:10;;;;;;;;;;;;;;;-144.99;94.22;52454.22;5056810;28;20429;-68
2024/03/07 06:40:38;;;;;;;;;;;;;;;-144.99;94.14;52494.97;5052630;28;20023;-68
2024/03/07 06:43:06;;;;;;;;;;;;;;;-144.99;94.71;52476.63;5059508;28;19960;-67
2024/03/07 06:45:32;;;;;;;;;;;;;;;-144.99;95.01;52452.16;5043132;28;19929;-69
2024/03/07 06:47:59;;;;;;;;;;;;;;;-144.99;94.11;52433.81;5051572;28;19929;-68
2024/03/07 06:50:26;;;;;;;;;;;;;;;-144.99;93.73;52448.09;5063386;28;19933;-68
2024/03/07 06:52:52;;;;;;;;;;;;;;;-144.99;93.45;52452.16;5051361;28;20382;-70
2024/03/07 06:55:19;;;;;;;;;;;;;;;-144.99;93.89;52433.81;5063558;28;20453;-68
2024/03/07 06:57:47;;;;;;;;;;;;;;;-144.99;93.19;52464.41;5055934;28;19967;-68
2024/03/07 07:00:14;;;;;;;;;;;;;;;-144.99;93.06;52427.72;5056381;28;19964;-68
2024/03/07 07:02:41;;;;;;;;;;;;;;;-144.99;91.30;52439.94;5045957;28;19972;-67
2024/03/07 07:05:11;;;;;;;;;;;;;;;-144.99;92.00;52464.41;5049513;28;19972;-67
2024/03/07 07:07:38;;;;;;;;;;;;;;;-144.99;91.60;52433.81;5063258;28;20345;-68
2024/03/07 07:10:08;;;;;;;;;;;;;;;-144.99;91.04;52444.03;5057462;28;20011;-67
2024/03/07 07:12:35;;;;;;;;;;;;;;;-144.99;90.81;52480.72;5054397;28;19933;-67
2024/03/07 07:15:03;;;;;;;;;;;;;;;-144.99;90.65;52470.50;5058502;28;19944;-64
2024/03/07 07:17:29;;;;;;;;;;;;;;;-144.99;90.54;52415.47;5040105;28;20014;-73
2024/03/07 07:19:56;;;;;;;;;;;;;;;-144.99;90.74;52472.56;5055545;28;19935;-73
2024/03/07 07:22:23;;;;;;;;;;;;;;;-144.99;90.79;52452.16;5045031;28;20600;-73
2024/03/07 07:24:49;;;;;;;;;;;;;;;-144.99;90.28;52423.63;5051526;28;20306;-74
2024/03/07 07:27:16;;;;;;;;;;;;;;;-144.99;89.96;52468.47;5059508;28;19970;-73
2024/03/07 07:29:42;;;;;;;;;;;;;;;-144.99;89.70;52429.75;5059234;28;20323;-73
2024/03/07 07:32:12;;;;;;;;;;;;;;;-144.99;90.30;52441.97;5064659;28;19929;-72
2024/03/07 07:34:38;;;;;;;;;;;;;;;-144.99;89.57;52403.25;5057824;28;19932;-73
2024/03/07 07:37:05;;;;;;;;;;;;;;;-144.99;89.34;52427.72;5062923;28;19924;-73
2024/03/07 07:39:31;;;;;;;;;;;;;;;-144.99;89.23;52439.94;5051632;28;19970;-71
2024/03/07 07:41:58;;;;;;;;;;;;;;;-144.99;88.21;52452.16;5053916;28;19990;-70
2024/03/07 07:44:25;;;;;;;;;;;;;;;-144.99;88.19;52439.94;5056020;28;19933;-69
2024/03/07 07:46:51;;;;;;;;;;;;;;;-144.99;88.10;52439.94;5046201;28;19979;-69
2024/03/07 07:49:19;;;;;;;;;;;;;;;-144.99;87.72;52435.88;5054228;28;19925;-70
2024/03/07 07:51:48;;;;;;;;;;;;;;;-144.99;86.86;52446.06;5053937;28;20485;-69
2024/03/07 07:54:15;;;;;;;;;;;;;;;-144.99;86.86;52444.03;5054998;28;19924;-69
2024/03/07 07:56:42;;;;;;;;;;;;;;;-144.99;86.52;52452.16;5054771;28;20283;-69
2024/03/07 07:59:09;;;;;;;;;;;;;;;-144.99;86.15;52450.13;5055857;28;19925;-68
2024/03/07 08:01:35;;;;;;;;;;;;;;;-144.99;85.44;52427.72;5052283;28;19925;-69
2024/03/07 08:04:02;;;;;;;;;;;;;;;-144.99;85.18;52433.81;5050742;28;20336;-68
2024/03/07 08:06:30;;;;;;;;;;;;;;;-144.99;85.35;52425.66;5045198;28;19925;-68
2024/03/07 08:08:56;;;;;;;;;;;;;;;-144.99;84.72;52458.28;5061938;28;19929;-70
2024/03/07 08:11:23;;;;;;;;;;;;;;;-144.99;84.21;52464.41;5042354;28;20011;-69
2024/03/07 08:13:51;;;;;;;;;;;;;;;-144.99;84.32;52419.56;5053610;28;19979;-69
2024/03/07 08:16:18;;;;;;;;;;;;;;;-144.99;83.94;52439.94;5053220;28;19925;-70
2024/03/07 08:18:44;;;;;;;;;;;;;;;-144.99;83.90;52458.28;5061181;28;20401;-69
2024/03/07 08:21:11;;;;;;;;;;;;;;;-144.99;84.34;52431.78;5053143;28;19991;-73
2024/03/07 08:23:39;;;;;;;;;;;;;;;-144.99;84.03;52460.31;5061139;28;20011;-68
2024/03/07 08:26:06;;;;;;;;;;;;;;;-144.99;83.89;52439.94;5059414;28;19929;-70
2024/03/07 08:28:32;;;;;;;;;;;;;;;-144.99;84.45;52448.09;5064773;28;19932;-70
2024/03/07 08:30:59;;;;;;;;;;;;;;;-144.99;84.21;52450.13;5056840;28;20020;-70
2024/03/07 08:33:26;;;;;;;;;;;;;;;-144.99;83.83;52452.16;5056240;28;19987;-69
2024/03/07 08:35:53;;;;;;;;;;;;;;;-144.99;83.78;52452.16;5050259;28;20043;-70
2024/03/07 08:38:20;;;;;;;;;;;;;;;-144.99;83.35;52439.94;5051262;28;20192;-70
2024/03/07 08:40:48;;;;;;;;;;;;;;;-144.99;82.60;52433.81;5049719;28;19935;-70
2024/03/07 08:43:15;;;;;;;;;;;;;;;-144.99;81.22;52439.94;5053849;28;19929;-70
2024/03/07 08:45:41;;;;;;;;;;;;;;;-144.99;81.08;52444.03;5054604;28;20250;-70
2024/03/07 08:48:08;;;;;;;;;;;;;;;-144.99;80.71;52423.63;5059137;28;19933;-71
2024/03/07 08:50:35;;;;;;;;;;;;;;;-144.99;82.03;52399.19;5044080;28;19991;-71
2024/03/07 08:53:04;;;;;;;;;;;;;;;-144.99;81.70;52439.94;5050997;28;19995;-70
2024/03/07 08:55:31;;;;;;;;;;;;;;;-144.99;82.07;52435.88;5049998;28;20011;-69
2024/03/07 08:57:59;;;;;;;;;;;;;;;-144.99;82.09;52431.78;5057003;28;19948;-69
2024/03/07 09:00:25;;;;;;;;;;;;;;;-144.99;81.00;52423.63;5052279;28;20012;-70
2024/03/07 09:02:53;;;;;;;;;;;;;;;-144.99;81.48;52395.09;5058576;28;19932;-69
2024/03/07 09:05:20;;;;;;;;;;;;;;;-144.99;79.48;52427.72;5058013;28;19972;-69
2024/03/07 09:07:47;;;;;;;;;;;;;;;-144.99;79.09;52395.09;5056879;28;20328;-70
2024/03/07 09:10:14;;;;;;;;;;;;;;;-144.99;78.41;52419.56;5055724;28;19983;-69
2024/03/07 09:12:41;;;;;;;;;;;;;;;-144.99;78.64;52439.94;5056663;28;20286;-70
2024/03/07 09:15:10;;;;;;;;;;;;;;;-144.99;78.52;52450.13;5057356;28;19924;-70
2024/03/07 09:17:36;;;;;;;;;;;;;;;-144.99;78.31;52439.94;5051941;28;19935;-69
2024/03/07 09:20:04;;;;;;;;;;;;;;;-144.99;77.80;52439.94;5046444;28;20016;-69
2024/03/07 09:22:31;;;;;;;;;;;;;;;-144.99;76.64;52441.97;5039176;28;19929;-70
2024/03/07 09:24:57;;;;;;;;;;;;;;;-144.99;75.97;52431.78;5046686;28;19940;-69
2024/03/07 09:27:24;;;;;;;;;;;;;;;-144.99;75.76;52456.25;5064652;28;20382;-68
2024/03/07 09:29:51;;;;;;;;;;;;;;;-144.99;75.93;52419.56;5057260;28;20335;-70
2024/03/07 09:32:24;;;;;;;;;;;;;;;-144.99;76.28;52464.41;5062047;28;19935;-70
2024/03/07 09:34:50;;;;;;;;;;;;;;;-144.99;75.72;52439.94;5054514;28;20027;-71
2024/03/07 09:37:17;;;;;;;;;;;;;;;-144.99;76.19;52401.22;5050739;28;20020;-69
2024/03/07 09:39:44;;;;;;;;;;;;;;;-144.99;74.53;52431.78;5054031;28;20024;-69
2024/03/07 09:42:10;;;;;;;;;;;;;;;-144.99;73.62;52464.41;5043178;28;19929;-69
2024/03/07 09:44:39;;;;;;;;;;;;;;;-144.99;73.22;52417.53;5047797;28;20347;-69
2024/03/07 09:47:06;;;;;;;;;;;;;;;-144.99;73.86;52403.25;5046441;28;19925;-69
2024/03/07 09:49:35;;;;;;;;;;;;;;;-144.99;73.43;52419.56;5045664;28;20342;-69
2024/03/07 09:52:03;;;;;;;;;;;;;;;-144.99;73.28;52433.81;5046575;28;19933;-70
2024/03/07 09:54:30;;;;;;;;;;;;;;;-144.99;72.98;52435.88;5044919;28;19960;-69
2024/03/07 09:56:59;;;;;;;;;;;;;;;-144.99;72.26;52417.53;5057000;28;19956;-69
2024/03/07 09:59:27;;;;;;;;;;;;;;;-144.99;72.42;52344.16;5047967;28;19964;-70
2024/03/07 10:01:55;;;;;;;;;;;;;;;-144.99;71.17;52386.94;5049224;28;20307;-70
2024/03/07 10:04:30;;;;;;;;;;;;;;;-144.99;70.94;52417.53;5059436;28;20018;-69
2024/03/07 10:06:58;;;;;;;;;;;;;;;-144.99;71.43;52407.31;5057668;28;20042;-69
2024/03/07 10:09:25;;;;;;;;;;;;;;;-144.99;71.05;52439.94;5049930;28;19933;-70
2024/03/07 10:11:56;;;;;;;;;;;;;;;-144.99;71.46;52407.31;5048403;28;20206;-69
2024/03/07 10:14:23;;;;;;;;;;;;;;;-144.99;73.11;52435.88;5048063;28;20098;-69
2024/03/07 10:16:49;;;;;;;;;;;;;;;-144.99;73.52;52444.03;5048330;28;19983;-69
2024/03/07 10:19:16;;;;;;;;;;;;;;;-144.99;73.52;52439.94;5043544;28;19932;-69
2024/03/07 10:21:43;;;;;;;;;;;;;;;-144.99;74.65;52415.47;5049018;28;20336;-70
2024/03/07 10:24:11;;;;;;;;;;;;;;;-144.99;75.44;52388.97;5062556;28;19990;-70
2024/03/07 10:26:40;;;;;;;;;;;;;;;-144.99;76.73;52444.03;5064298;28;19928;-70
2024/03/07 10:29:07;;;;;;;;;;;;;;;-144.99;78.88;52476.63;5064265;28;19933;-70
2024/03/07 10:31:34;;;;;;;;;;;;;;;-144.99;79.34;52468.47;5053694;28;20302;-70
2024/03/07 10:34:01;;;;;;;;;;;;;;;-144.99;80.35;52507.19;5049748;28;19972;-70
2024/03/07 10:36:30;;;;;;;;;;;;;;;-144.99;80.99;52435.88;5065734;28;19925;-70
2024/03/07 10:38:56;;;;;;;;;;;;;;;-144.99;81.12;52435.88;5066189;28;19937;-70
2024/03/07 10:41:30;;;;;;;;;;;;;;;-144.99;82.06;52456.25;5051437;28;19986;-70
2024/03/07 10:43:58;;;;;;;;;;;;;;;-144.99;82.24;52419.56;5049486;28;20032;-72
2024/03/07 10:46:26;;;;;;;;;;;;;;;-144.99;82.33;52460.31;5050667;28;20163;-71
2024/03/07 10:48:55;;;;;;;;;;;;;;;-144.99;82.42;52452.16;5054424;28;20015;-71
2024/03/07 10:51:27;;;;;;;;;;;;;;;-144.99;82.54;52452.16;5054806;28;19964;-71
2024/03/07 10:53:58;;;;;;;;;;;;;;;-144.99;82.88;52431.78;5055220;28;20169;-71
2024/03/07 10:56:30;;;;;;;;;;;;;;;-144.99;83.75;52448.09;5066754;28;20394;-71
2024/03/07 10:59:04;;;;;;;;;;;;;;;-144.99;83.92;52466.44;5064297;28;20333;-71
2024/03/07 11:01:33;;;;;;;;;;;;;;;-144.99;83.80;52439.94;5050367;28;19924;-71
2024/03/07 11:04:00;;;;;;;;;;;;;;;-144.99;84.36;52464.41;5062527;28;20287;-71
2024/03/07 11:06:26;;;;;;;;;;;;;;;-144.99;84.28;52427.72;5060666;28;19932;-69
2024/03/07 11:08:54;;;;;;;;;;;;;;;-144.99;84.84;52448.09;5054569;28;19928;-71
2024/03/07 11:11:23;;;;;;;;;;;;;;;-144.99;85.55;52456.25;5045807;28;20364;-71
2024/03/07 11:13:53;;;;;;;;;;;;;;;-144.99;85.81;52423.63;5059748;28;19987;-71
2024/03/07 11:16:21;;;;;;;;;;;;;;;-144.99;85.76;52452.16;5057876;28;19925;-69
2024/03/07 11:19:04;;;;;;;;;;;;;;;-144.99;86.21;52448.09;5048160;28;20051;-69
2024/03/07 11:21:43;;;;;;;;;;;;;;;-144.99;86.18;52444.03;5053927;28;19960;-69
2024/03/07 11:24:10;;;;;;;;;;;;;;;-144.99;86.58;52423.63;5062629;28;20022;-69
2024/03/07 11:26:36;;;;;;;;;;;;;;;-144.99;86.60;52439.94;5057215;28;20008;-69
2024/03/07 11:29:24;;;;;;;;;;;;;;;-144.99;86.66;52433.81;5052342;28;19988;-69
2024/03/07 11:31:54;;;;;;;;;;;;;;;-144.99;86.77;52439.94;5055543;28;20013;-70
2024/03/07 11:34:22;;;;;;;;;;;;;;;-144.99;86.55;52458.28;5053104;28;20028;-70
2024/03/07 11:36:52;;;;;;;;;;;;;;;-144.99;86.07;52450.13;5050745;28;20006;-70
2024/03/07 11:39:37;;;;;;;;;;;;;;;-144.99;85.65;52439.94;5045705;28;19983;-70
2024/03/07 11:42:06;;;;;;;;;;;;;;;-144.99;85.71;52425.66;5045747;28;19940;-69
2024/03/07 11:44:34;;;;;;;;;;;;;;;-144.99;85.50;52419.56;5052273;28;19932;-69
2024/03/07 11:47:08;;;;;;;;;;;;;;;-144.99;85.00;52439.94;5061544;28;20019;-69
2024/03/07 11:49:35;;;;;;;;;;;;;;;-144.99;84.82;52419.56;5057537;28;20020;-70
2024/03/07 11:52:04;;;;;;;;;;;;;;;-144.99;84.07;52452.16;5055321;28;20031;-69
2024/03/07 11:54:31;;;;;;;;;;;;;;;-144.99;85.01;52441.97;5047561;28;20267;-69
2024/03/07 11:56:57;;;;;;;;;;;;;;;-144.99;85.03;52456.25;5057071;28;19979;-69
2024/03/07 11:59:24;;;;;;;;;;;;;;;-144.99;84.64;52413.44;5050797;28;20301;-69
2024/03/07 12:01:52;;;;;;;;;;;;;;;-144.99;84.21;52456.25;5050737;28;20195;-69
2024/03/07 12:04:19;;;;;;;;;;;;;;;-144.99;84.28;52435.88;5059363;28;19968;-69
2024/03/07 12:06:51;;;;;;;;;;;;;;;-144.99;84.58;52444.03;5060953;28;19928;-68
2024/03/07 12:09:23;;;;;;;;;;;;;;;-144.99;83.75;52444.03;5051505;28;19955;-69
2024/03/07 12:11:52;;;;;;;;;;;;;;;-144.99;84.33;52425.66;5049840;28;20032;-69
2024/03/07 12:14:19;;;;;;;;;;;;;;;-144.99;84.72;52391.03;5054653;28;19933;-69
2024/03/07 12:16:45;;;;;;;;;;;;;;;-144.99;84.64;52454.22;5063238;28;19929;-70
2024/03/07 12:19:17;;;;;;;;;;;;;;;-144.99;85.19;52460.31;5064886;28;20015;-68
2024/03/07 12:21:43;;;;;;;;;;;;;;;-144.99;85.11;52407.31;5062705;28;19929;-68
2024/03/07 12:24:14;;;;;;;;;;;;;;;-144.99;84.54;52433.81;5056741;28;19971;-69